Terminal Aerodrome Forecast
Issued by NWS

Home | Current Version | Previous Version | Text Only | Print | Product List | Glossary On
Versions: 1 2 3 4 5 6 7 8 9 10 11 12 13 14 15 16 17 18 19 20 21 22 23 24 25 26 27 28 29 30
050
FTUS41 KCLE 191720
TAFFDY
TAF
KFDY 191720Z 1918/2018 12003KT P6SM SKC
     FM192000 15008KT P6SM FEW250
     FM201000 VRB03KT 6SM BR SCT250
     FM201300 18004KT P6SM SCT080
     FM201500 VRB03KT P6SM SCT045 BKN250
      TEMPO 2015/2018 BKN045=

USA.gov is the U.S. government's official web portal to all federal, state and local government web resources and services.